createdAt,value
2022-11-30T00:01:30.990Z,62.86
2022-11-30T00:03:58.545Z,63.07
2022-11-30T00:06:26.147Z,63.41
2022-11-30T00:08:55.507Z,63.36
2022-11-30T00:11:25.566Z,62.88
2022-11-30T00:13:53.263Z,63.13
2022-11-30T00:16:21.196Z,63.30
2022-11-30T00:18:48.929Z,62.74
2022-11-30T00:21:16.479Z,63.15
2022-11-30T00:23:45.721Z,63.64
2022-11-30T00:26:16.715Z,63.53
2022-11-30T00:28:45.998Z,63.74
2022-11-30T00:31:16.557Z,63.22
2022-11-30T00:33:44.874Z,63.13
2022-11-30T00:36:15.934Z,63.02
2022-11-30T00:38:44.486Z,63.67
2022-11-30T00:41:14.780Z,63.37
2022-11-30T00:43:42.486Z,63.96
2022-11-30T00:46:10.751Z,63.48
2022-11-30T00:48:39.519Z,63.40
2022-11-30T00:51:08.358Z,63.39
2022-11-30T00:53:36.125Z,62.77
2022-11-30T00:56:04.264Z,63.35
2022-11-30T00:58:31.728Z,63.16
2022-11-30T01:01:01.530Z,63.08
2022-11-30T01:03:29.345Z,63.93
2022-11-30T01:06:02.832Z,63.12
2022-11-30T01:08:30.473Z,64.01
2022-11-30T01:11:05.976Z,64.11
2022-11-30T01:13:33.539Z,63.38
2022-11-30T01:16:01.228Z,64.02
2022-11-30T01:18:28.784Z,63.75
2022-11-30T01:20:56.329Z,64.07
2022-11-30T01:23:23.812Z,63.46
2022-11-30T01:25:55.651Z,63.92
2022-11-30T01:28:23.240Z,63.66
2022-11-30T01:31:08.249Z,64.04
2022-11-30T01:33:36.328Z,63.50
2022-11-30T01:36:12.302Z,64.32
2022-11-30T01:38:51.111Z,63.81
2022-11-30T01:41:31.678Z,64.17
2022-11-30T01:44:05.079Z,63.67
2022-11-30T01:47:10.256Z,63.61
2022-11-30T01:49:51.758Z,63.68
2022-11-30T01:52:19.260Z,63.38
2022-11-30T01:54:54.428Z,63.71
2022-11-30T01:57:24.928Z,63.56
2022-11-30T01:59:54.915Z,63.34
2022-11-30T02:02:32.183Z,63.51
2022-11-30T02:05:00.601Z,63.88
2022-11-30T02:07:28.384Z,63.85
2022-11-30T02:09:56.006Z,63.63
2022-11-30T02:13:01.706Z,63.75
2022-11-30T02:16:07.514Z,63.67
2022-11-30T02:18:41.130Z,63.62
2022-11-30T02:21:33.269Z,63.22
2022-11-30T02:24:23.310Z,63.29
2022-11-30T02:27:02.859Z,63.45
2022-11-30T02:29:35.120Z,63.40
2022-11-30T02:32:08.115Z,63.29
2022-11-30T02:34:38.234Z,63.16
2022-11-30T02:37:08.060Z,63.62
2022-11-30T02:39:35.729Z,63.36
2022-11-30T02:42:03.420Z,63.87
2022-11-30T02:44:31.495Z,63.42
2022-11-30T02:47:05.019Z,63.04
2022-11-30T02:49:38.475Z,63.49
2022-11-30T02:52:08.190Z,63.09
2022-11-30T02:54:35.827Z,63.85
2022-11-30T02:57:03.385Z,63.64
2022-11-30T02:59:31.020Z,63.25
2022-11-30T03:01:58.597Z,63.49
2022-11-30T03:04:26.205Z,63.37
2022-11-30T03:06:53.686Z,63.54
2022-11-30T03:09:21.247Z,63.48
2022-11-30T03:11:48.748Z,63.05
2022-11-30T03:14:16.203Z,63.35
2022-11-30T03:16:44.342Z,63.34
2022-11-30T03:19:12.692Z,63.30
2022-11-30T03:21:40.226Z,64.01
2022-11-30T03:24:08.106Z,63.89
2022-11-30T03:26:35.747Z,64.06
2022-11-30T03:29:03.506Z,63.76
2022-11-30T03:31:31.094Z,64.11
2022-11-30T03:33:58.700Z,64.34
2022-11-30T03:36:26.310Z,64.29
2022-11-30T03:38:53.739Z,64.52
2022-11-30T03:41:21.319Z,64.70
2022-11-30T03:43:49.891Z,64.82
2022-11-30T03:46:17.918Z,64.78
2022-11-30T03:48:45.618Z,64.91
2022-11-30T03:51:14.403Z,65.40
2022-11-30T03:53:42.395Z,64.92
2022-11-30T03:56:11.791Z,65.26
2022-11-30T03:58:39.344Z,64.88
2022-11-30T04:01:13.412Z,65.13
2022-11-30T04:03:41.695Z,65.17
2022-11-30T04:06:10.672Z,64.85
2022-11-30T04:08:39.052Z,65.30
2022-11-30T04:11:07.685Z,64.81
2022-11-30T04:13:37.271Z,64.82
2022-11-30T04:16:06.604Z,65.63
2022-11-30T04:18:36.574Z,64.24
2022-11-30T04:21:05.172Z,65.10
2022-11-30T04:23:35.550Z,65.18
2022-11-30T04:26:08.588Z,64.63
2022-11-30T04:28:36.440Z,64.90
2022-11-30T04:31:04.717Z,65.02
2022-11-30T04:33:32.439Z,64.88
2022-11-30T04:36:02.811Z,65.16
2022-11-30T04:38:31.374Z,65.03
2022-11-30T04:40:58.977Z,64.77
2022-11-30T04:43:27.635Z,64.91
2022-11-30T04:45:55.075Z,65.08
2022-11-30T04:48:22.586Z,65.38
2022-11-30T04:50:50.093Z,65.29
2022-11-30T04:53:17.616Z,65.32
2022-11-30T04:55:45.148Z,64.84
2022-11-30T04:58:12.624Z,65.38
2022-11-30T05:00:40.250Z,64.75
2022-11-30T05:03:08.067Z,64.79
2022-11-30T05:05:35.737Z,65.21
2022-11-30T05:08:03.318Z,65.15
2022-11-30T05:10:33.898Z,64.53
2022-11-30T05:13:01.725Z,64.94
2022-11-30T05:15:29.398Z,64.79
2022-11-30T05:18:01.337Z,64.71
2022-11-30T05:20:29.541Z,65.07
2022-11-30T05:22:57.899Z,64.71
2022-11-30T05:25:25.485Z,65.13
2022-11-30T05:27:53.096Z,64.88
2022-11-30T05:30:20.716Z,65.31
2022-11-30T05:32:48.334Z,64.67
2022-11-30T05:35:16.006Z,64.43
2022-11-30T05:37:43.475Z,65.04
2022-11-30T05:40:11.268Z,65.38
2022-11-30T05:42:41.314Z,65.65
2022-11-30T05:45:11.768Z,65.33
2022-11-30T05:47:39.323Z,65.67
2022-11-30T05:50:07.542Z,65.80
2022-11-30T05:52:35.157Z,65.06
2022-11-30T05:55:02.590Z,65.28
2022-11-30T05:57:30.763Z,65.31
2022-11-30T05:59:58.219Z,64.95
2022-11-30T06:02:28.340Z,64.96
2022-11-30T06:04:56.239Z,65.45
2022-11-30T06:07:23.785Z,64.49
2022-11-30T06:09:51.470Z,64.51
2022-11-30T06:12:18.941Z,64.21
2022-11-30T06:14:49.153Z,64.07
2022-11-30T06:17:17.374Z,64.72
2022-11-30T06:19:44.879Z,64.55
2022-11-30T06:22:12.422Z,64.08
2022-11-30T06:24:39.927Z,63.80
2022-11-30T06:27:07.364Z,63.58
2022-11-30T06:29:35.255Z,63.73
2022-11-30T06:32:02.896Z,63.62
2022-11-30T06:34:32.391Z,63.92
2022-11-30T06:36:59.900Z,63.43
2022-11-30T06:39:57.896Z,63.18
2022-11-30T06:42:15.001Z,62.78
2022-11-30T06:44:42.522Z,62.22
2022-11-30T06:47:10.053Z,61.39
2022-11-30T06:49:37.745Z,61.57
2022-11-30T06:52:05.391Z,60.68
2022-11-30T06:54:32.836Z,60.35
2022-11-30T06:57:01.407Z,60.18
2022-11-30T06:59:29.501Z,59.88
2022-11-30T07:01:57.133Z,59.84
2022-11-30T07:04:24.712Z,58.77
2022-11-30T07:06:52.279Z,58.86
2022-11-30T07:09:19.918Z,58.32
2022-11-30T07:11:47.391Z,57.92
2022-11-30T07:14:14.959Z,58.55
2022-11-30T07:16:42.435Z,57.76
2022-11-30T07:19:09.957Z,57.93
2022-11-30T07:21:37.407Z,57.34
2022-11-30T07:24:23.575Z,57.17
2022-11-30T07:26:51.163Z,56.99
2022-11-30T07:29:26.090Z,56.97
2022-11-30T07:31:54.725Z,56.53
2022-11-30T07:34:22.928Z,56.28
2022-11-30T07:36:50.335Z,56.26
2022-11-30T07:39:17.790Z,56.37
2022-11-30T07:41:45.263Z,55.73
2022-11-30T07:44:12.706Z,55.75
2022-11-30T07:46:40.175Z,55.79
2022-11-30T07:49:09.669Z,55.43
2022-11-30T07:51:37.782Z,55.29
2022-11-30T07:54:05.504Z,55.87
2022-11-30T07:56:33.220Z,56.38
2022-11-30T07:59:02.000Z,56.88
2022-11-30T08:01:32.460Z,56.82
2022-11-30T08:04:00.478Z,57.72
2022-11-30T08:06:30.657Z,57.95
2022-11-30T08:09:01.313Z,57.73
2022-11-30T08:11:31.193Z,58.15
2022-11-30T08:13:58.985Z,58.06
2022-11-30T08:16:28.694Z,58.27
2022-11-30T08:18:57.049Z,58.48
2022-11-30T08:21:25.096Z,58.43
2022-11-30T08:23:56.533Z,58.10
2022-11-30T08:26:27.695Z,58.72
2022-11-30T08:28:55.678Z,59.20
2022-11-30T08:31:31.675Z,58.78
2022-11-30T08:34:07.603Z,59.33
2022-11-30T08:36:35.264Z,59.68
2022-11-30T08:39:05.233Z,59.85
2022-11-30T08:41:34.950Z,60.45
2022-11-30T08:44:02.455Z,59.69
2022-11-30T08:49:22.536Z,60.62
2022-11-30T08:52:17.022Z,60.58
2022-11-30T08:54:46.405Z,61.07
2022-11-30T08:57:19.705Z,60.47
2022-11-30T08:59:47.829Z,60.53
2022-11-30T09:02:18.231Z,60.00
2022-11-30T09:04:49.294Z,60.03
2022-11-30T09:07:17.883Z,59.63
2022-11-30T09:09:45.819Z,60.44
2022-11-30T09:12:15.840Z,60.74
2022-11-30T09:14:45.193Z,60.57
2022-11-30T09:17:12.925Z,60.20
2022-11-30T09:19:40.446Z,60.41
2022-11-30T09:22:08.009Z,60.12
2022-11-30T09:24:35.604Z,59.72
2022-11-30T09:27:03.065Z,60.39
2022-11-30T09:29:30.606Z,60.28
2022-11-30T09:31:58.336Z,60.26
2022-11-30T09:34:26.103Z,60.69
2022-11-30T09:36:53.618Z,59.98
2022-11-30T09:39:21.184Z,60.35
2022-11-30T09:42:07.079Z,61.08
2022-11-30T09:44:43.577Z,60.59
2022-11-30T09:47:45.271Z,61.57
2022-11-30T09:50:20.655Z,61.60
2022-11-30T09:53:01.409Z,61.56
2022-11-30T09:55:34.013Z,61.75
2022-11-30T09:58:05.687Z,61.90
2022-11-30T10:00:34.984Z,61.66
2022-11-30T10:03:06.161Z,62.14
2022-11-30T10:05:51.464Z,61.78
2022-11-30T10:08:33.573Z,62.33
2022-11-30T10:11:25.628Z,62.15
2022-11-30T10:14:00.863Z,61.59
2022-11-30T10:16:47.205Z,62.23
2022-11-30T10:19:33.463Z,61.83
2022-11-30T10:22:13.216Z,61.58
2022-11-30T10:25:18.241Z,61.23
2022-11-30T10:28:38.589Z,60.88
2022-11-30T10:31:01.604Z,60.94
2022-11-30T10:33:38.785Z,60.48
2022-11-30T10:36:30.301Z,60.80
2022-11-30T10:39:02.296Z,60.49
2022-11-30T10:41:48.520Z,60.27
2022-11-30T10:44:27.124Z,60.10
2022-11-30T10:47:15.673Z,60.50
2022-11-30T10:49:48.830Z,60.35
2022-11-30T10:52:27.275Z,60.03
2022-11-30T10:55:02.205Z,59.94
2022-11-30T10:57:33.249Z,59.66
2022-11-30T11:00:05.801Z,59.80
2022-11-30T11:02:50.417Z,59.22
2022-11-30T11:05:18.217Z,59.68
2022-11-30T11:08:19.656Z,59.10
2022-11-30T11:10:52.215Z,59.47
2022-11-30T11:13:41.477Z,59.37
2022-11-30T11:16:11.693Z,59.30
2022-11-30T11:18:57.928Z,59.17
2022-11-30T11:21:25.482Z,59.09
2022-11-30T11:23:55.976Z,59.03
2022-11-30T11:26:28.641Z,58.86
2022-11-30T11:28:59.680Z,58.87
2022-11-30T11:31:42.353Z,58.72
2022-11-30T11:34:31.823Z,58.54
2022-11-30T11:37:20.384Z,58.72
2022-11-30T11:40:09.567Z,58.62
2022-11-30T11:42:45.523Z,58.83
2022-11-30T11:45:20.158Z,59.01
2022-11-30T11:48:11.772Z,58.99
2022-11-30T11:53:46.073Z,58.96
2022-11-30T11:56:29.407Z,59.47
2022-11-30T11:59:01.814Z,59.79
2022-11-30T12:01:50.951Z,59.14
2022-11-30T12:04:31.958Z,59.11
2022-11-30T12:07:04.897Z,59.50
2022-11-30T12:09:39.713Z,59.64
2022-11-30T12:12:13.310Z,59.78
2022-11-30T12:14:40.852Z,59.85
2022-11-30T12:17:35.524Z,59.75
2022-11-30T12:20:18.378Z,60.33
2022-11-30T12:22:54.816Z,60.72
2022-11-30T12:25:50.150Z,60.82
2022-11-30T12:28:28.114Z,61.25
2022-11-30T12:31:15.682Z,61.68
2022-11-30T12:33:57.298Z,61.13
2022-11-30T12:36:39.646Z,61.30
2022-11-30T12:39:16.270Z,61.24
2022-11-30T12:42:03.243Z,62.27
2022-11-30T12:44:45.527Z,61.94
2022-11-30T12:47:39.930Z,62.47
2022-11-30T12:50:40.648Z,62.91
2022-11-30T12:53:37.700Z,63.19
2022-11-30T12:56:28.308Z,63.11
2022-11-30T12:59:28.076Z,63.24
2022-11-30T13:02:17.316Z,63.55
2022-11-30T13:04:58.791Z,63.46
2022-11-30T13:07:34.816Z,63.15
2022-11-30T13:10:27.858Z,63.57
2022-11-30T13:13:02.456Z,62.72
2022-11-30T13:15:34.331Z,63.14
2022-11-30T13:18:03.501Z,63.49
2022-11-30T13:20:46.821Z,63.83
2022-11-30T13:23:21.310Z,64.66
2022-11-30T13:26:11.743Z,64.69
2022-11-30T13:28:42.282Z,64.27
2022-11-30T13:31:21.950Z,64.64
2022-11-30T13:33:58.375Z,64.66
2022-11-30T13:36:48.256Z,64.85
2022-11-30T13:39:16.517Z,64.90
2022-11-30T13:41:50.708Z,64.73
2022-11-30T13:44:34.268Z,65.10
2022-11-30T13:47:04.642Z,64.80
2022-11-30T13:49:36.877Z,64.63
2022-11-30T13:52:23.174Z,65.21
2022-11-30T13:54:57.378Z,64.98
2022-11-30T13:57:24.871Z,64.73
2022-11-30T14:00:03.997Z,65.06
2022-11-30T14:02:32.603Z,64.81
2022-11-30T14:05:18.330Z,65.30
2022-11-30T14:08:07.090Z,64.61
2022-11-30T14:10:38.198Z,65.21
2022-11-30T14:13:29.684Z,65.17
2022-11-30T14:16:00.831Z,64.85
2022-11-30T14:18:39.933Z,65.01
2022-11-30T14:21:26.584Z,65.96
2022-11-30T14:23:59.731Z,65.52
2022-11-30T14:26:44.062Z,65.69
2022-11-30T14:29:27.670Z,65.48
2022-11-30T14:32:28.540Z,66.08
2022-11-30T14:35:05.902Z,65.97
2022-11-30T14:37:40.919Z,65.82
2022-11-30T14:40:18.460Z,65.43
2022-11-30T14:42:51.699Z,65.53
2022-11-30T14:45:21.794Z,65.83
2022-11-30T14:47:55.818Z,65.43
2022-11-30T14:50:26.109Z,65.76
2022-11-30T14:53:13.360Z,65.86
2022-11-30T14:55:46.551Z,65.97
2022-11-30T14:58:45.568Z,66.78
2022-11-30T15:01:43.125Z,66.20
2022-11-30T15:04:20.723Z,66.01
2022-11-30T15:06:53.001Z,66.71
2022-11-30T15:09:30.935Z,66.45
2022-11-30T15:12:00.337Z,66.57
2022-11-30T15:14:31.406Z,66.78
2022-11-30T15:17:00.460Z,66.57
2022-11-30T15:19:35.386Z,66.76
2022-11-30T15:22:03.238Z,66.79
2022-11-30T15:24:30.781Z,66.50
2022-11-30T15:27:10.975Z,67.05
2022-11-30T15:29:57.715Z,67.70
2022-11-30T15:32:26.273Z,67.55
2022-11-30T15:35:00.943Z,67.19
2022-11-30T15:37:33.826Z,67.12
2022-11-30T15:40:03.457Z,67.11
2022-11-30T15:42:44.098Z,67.11
2022-11-30T15:45:30.473Z,67.06
2022-11-30T15:48:00.315Z,66.88
2022-11-30T15:50:31.174Z,66.79
2022-11-30T15:53:01.172Z,67.40
2022-11-30T15:55:48.720Z,67.81
2022-11-30T15:58:46.101Z,68.09
2022-11-30T16:01:20.801Z,67.16
2022-11-30T16:04:02.368Z,68.03
2022-11-30T16:06:32.713Z,67.33
2022-11-30T16:09:19.301Z,68.07
2022-11-30T16:11:50.379Z,67.78
2022-11-30T16:14:18.179Z,68.08
2022-11-30T16:16:46.340Z,67.39
2022-11-30T16:19:14.031Z,67.90
2022-11-30T16:21:41.872Z,67.46
2022-11-30T16:24:16.084Z,67.54
2022-11-30T16:26:50.910Z,67.55
2022-11-30T16:29:18.969Z,67.81
2022-11-30T16:31:46.586Z,67.41
2022-11-30T16:34:14.293Z,67.59
2022-11-30T16:36:41.782Z,67.88
2022-11-30T16:39:12.375Z,67.29
2022-11-30T16:41:43.395Z,67.50
2022-11-30T16:44:14.677Z,67.71
2022-11-30T16:46:42.323Z,67.03
2022-11-30T16:49:09.964Z,66.95
2022-11-30T16:51:37.630Z,66.90
2022-11-30T16:54:05.402Z,66.72
2022-11-30T16:56:33.406Z,66.39
2022-11-30T16:59:01.064Z,66.79
2022-11-30T17:01:35.538Z,66.52
2022-11-30T17:04:21.514Z,67.61
2022-11-30T17:06:51.304Z,66.95
2022-11-30T17:09:21.479Z,66.99
2022-11-30T17:11:50.922Z,66.33
2022-11-30T17:14:19.858Z,66.82
2022-11-30T17:16:47.672Z,67.49
2022-11-30T17:19:15.348Z,67.30
2022-11-30T17:21:44.801Z,67.23
2022-11-30T17:24:13.294Z,66.79
2022-11-30T17:26:40.893Z,66.92
2022-11-30T17:29:08.485Z,66.34
2022-11-30T17:31:36.987Z,66.63
2022-11-30T17:34:04.478Z,66.23
2022-11-30T17:36:32.097Z,66.48
2022-11-30T17:38:59.692Z,66.50
2022-11-30T17:41:27.173Z,66.80
2022-11-30T17:43:54.867Z,66.84
2022-11-30T17:46:22.676Z,66.90
2022-11-30T17:48:50.573Z,66.40
2022-11-30T17:51:18.098Z,66.89
2022-11-30T17:53:48.074Z,66.25
2022-11-30T17:56:17.508Z,66.46
2022-11-30T17:58:46.298Z,66.41
2022-11-30T18:01:30.135Z,66.45
2022-11-30T18:03:59.116Z,66.23
2022-11-30T18:06:26.902Z,66.52
2022-11-30T18:08:54.471Z,66.78
2022-11-30T18:11:24.012Z,67.00
2022-11-30T18:13:54.446Z,66.27
2022-11-30T18:16:27.730Z,66.77
2022-11-30T18:18:57.480Z,66.69
2022-11-30T18:21:28.383Z,66.47
2022-11-30T18:23:57.838Z,66.37
2022-11-30T18:26:26.833Z,67.22
2022-11-30T18:28:56.768Z,66.46
2022-11-30T18:31:24.975Z,66.32
2022-11-30T18:33:56.606Z,66.25
2022-11-30T18:36:24.580Z,66.68
2022-11-30T18:38:52.156Z,66.69
2022-11-30T18:41:20.120Z,66.29
2022-11-30T18:43:47.743Z,66.05
2022-11-30T18:46:15.362Z,66.50
2022-11-30T18:48:43.110Z,66.40
2022-11-30T18:51:22.976Z,66.28
2022-11-30T18:53:57.717Z,65.98
2022-11-30T18:56:27.103Z,65.89
2022-11-30T18:59:06.662Z,66.20
2022-11-30T19:01:35.712Z,66.64
2022-11-30T19:04:06.003Z,66.58
2022-11-30T19:06:34.658Z,66.41
2022-11-30T19:09:05.839Z,66.42
2022-11-30T19:11:33.884Z,66.73
2022-11-30T19:14:02.089Z,66.16
2022-11-30T19:16:31.378Z,66.50
2022-11-30T19:19:02.164Z,66.66
2022-11-30T19:21:29.733Z,66.68
2022-11-30T19:23:57.588Z,66.34
2022-11-30T19:26:28.006Z,66.51
2022-11-30T19:28:57.152Z,66.27
2022-11-30T19:31:25.504Z,66.56
2022-11-30T19:33:55.850Z,66.19
2022-11-30T19:36:26.183Z,66.26
2022-11-30T19:38:54.818Z,66.10
2022-11-30T19:41:22.607Z,66.04
2022-11-30T19:44:04.110Z,65.97
2022-11-30T19:46:34.726Z,66.66
2022-11-30T19:49:02.566Z,65.53
2022-11-30T19:51:31.294Z,66.08
2022-11-30T19:54:01.924Z,65.66
2022-11-30T19:56:32.346Z,65.57
2022-11-30T19:59:05.059Z,65.06
2022-11-30T20:01:34.509Z,65.04
2022-11-30T20:04:03.230Z,64.86
2022-11-30T20:06:34.352Z,65.17
2022-11-30T20:09:03.823Z,65.65
2022-11-30T20:11:31.702Z,65.60
2022-11-30T20:14:00.432Z,65.29
2022-11-30T20:16:28.333Z,65.11
2022-11-30T20:19:00.897Z,65.79
2022-11-30T20:21:34.382Z,64.97
2022-11-30T20:24:06.234Z,65.27
2022-11-30T20:26:39.869Z,65.64
2022-11-30T20:29:11.960Z,65.29
2022-11-30T20:31:39.741Z,65.26
2022-11-30T20:34:08.285Z,65.18
2022-11-30T20:36:36.232Z,64.87
2022-11-30T20:39:04.792Z,64.18
2022-11-30T20:41:34.051Z,64.53
2022-11-30T20:44:01.795Z,65.11
2022-11-30T20:46:32.149Z,65.94
2022-11-30T20:49:00.752Z,65.67
2022-11-30T20:51:32.436Z,65.45
2022-11-30T20:54:02.724Z,65.22
2022-11-30T20:56:30.353Z,65.03
2022-11-30T20:59:01.646Z,65.64
2022-11-30T21:01:29.477Z,65.93
2022-11-30T21:04:01.011Z,65.77
2022-11-30T21:06:30.199Z,65.63
2022-11-30T21:08:58.842Z,65.95
2022-11-30T21:11:27.803Z,66.26
2022-11-30T21:13:56.526Z,65.02
2022-11-30T21:16:28.564Z,65.42
2022-11-30T21:18:59.090Z,65.69
2022-11-30T21:21:30.923Z,65.67
2022-11-30T21:24:00.938Z,65.24
2022-11-30T21:26:34.001Z,65.51
2022-11-30T21:29:04.853Z,65.33
2022-11-30T21:31:32.531Z,65.40
2022-11-30T21:34:00.477Z,65.28
2022-11-30T21:36:28.630Z,65.40
2022-11-30T21:39:06.356Z,65.50
2022-11-30T21:41:38.800Z,64.63
2022-11-30T21:44:10.543Z,65.58
2022-11-30T21:46:38.621Z,65.12
2022-11-30T21:49:06.959Z,65.58
2022-11-30T21:51:34.613Z,66.01
2022-11-30T21:54:07.591Z,66.25
2022-11-30T21:56:37.174Z,66.18
2022-11-30T21:59:06.760Z,66.12
2022-11-30T22:01:39.343Z,66.13
2022-11-30T22:04:08.591Z,65.95
2022-11-30T22:06:37.763Z,66.32
2022-11-30T22:09:16.690Z,66.14
2022-11-30T22:11:45.425Z,66.29
2022-11-30T22:14:16.071Z,66.37
2022-11-30T22:16:44.532Z,66.53
2022-11-30T22:19:12.051Z,66.49
2022-11-30T22:21:39.882Z,66.58
2022-11-30T22:24:11.239Z,67.08
2022-11-30T22:26:39.873Z,66.67
2022-11-30T22:29:16.573Z,66.66
2022-11-30T22:31:46.233Z,66.42
2022-11-30T22:34:14.241Z,66.27
2022-11-30T22:36:43.233Z,66.27
2022-11-30T22:39:19.730Z,66.33
2022-11-30T22:41:54.668Z,66.66
2022-11-30T22:44:24.310Z,66.74
2022-11-30T22:46:51.974Z,66.79
2022-11-30T22:49:21.544Z,67.17
2022-11-30T22:51:50.643Z,66.29
2022-11-30T22:54:18.948Z,66.24
2022-11-30T22:56:46.897Z,66.64
2022-11-30T22:59:15.357Z,66.87
2022-11-30T23:01:45.721Z,66.41
2022-11-30T23:04:16.216Z,66.58
2022-11-30T23:06:44.723Z,66.97
2022-11-30T23:09:15.276Z,66.22
2022-11-30T23:11:43.395Z,66.21
2022-11-30T23:14:12.268Z,66.21
2022-11-30T23:16:40.444Z,65.71
2022-11-30T23:19:10.607Z,66.33
2022-11-30T23:21:41.993Z,66.12
2022-11-30T23:24:14.266Z,66.16
2022-11-30T23:26:43.098Z,66.44
2022-11-30T23:29:13.773Z,65.56
2022-11-30T23:31:43.153Z,65.73
2022-11-30T23:34:16.716Z,66.20
2022-11-30T23:36:44.218Z,65.32
2022-11-30T23:39:14.781Z,65.82
2022-11-30T23:41:42.944Z,65.55
2022-11-30T23:44:11.489Z,66.06
2022-11-30T23:46:39.239Z,65.64
2022-11-30T23:49:07.142Z,65.12
2022-11-30T23:51:34.673Z,65.26
2022-11-30T23:54:02.145Z,65.26
2022-11-30T23:56:29.658Z,65.49
2022-11-30T23:58:57.096Z,65.21
